Time;durP1;ratioP1;P1;durP2;ratioP2;P2;SDS_P1;SDS_P2;PMS_P1;PMS_P2;Temp;Humidity;BMP_temperature;BMP_pressure;BME280_temperature;BME280_humidity;BME280_pressure;Samples;Min_cycle;Max_cycle;Signal;HPM_P1;HPM_P2
2021/03/16 00:00:17;;;;;;;;;10.00;10.00;;;;;7.39;63.77;100413.25;4860547;29;11735;-73
2021/03/16 00:03:13;;;;;;;;;10.75;10.75;;;;;7.53;63.16;100412.03;4861227;29;11689;-73
2021/03/16 00:06:08;;;;;;;;;12.50;11.25;;;;;7.45;63.47;100407.31;4860916;29;11744;-73
2021/03/16 00:09:04;;;;;;;;;8.75;6.75;;;;;7.16;64.58;100407.00;4847852;29;11739;-72
2021/03/16 00:12:00;;;;;;;;;10.75;10.75;;;;;7.22;64.42;100398.28;4861089;29;11653;-73
2021/03/16 00:14:55;;;;;;;;;13.25;12.00;;;;;6.92;65.18;100394.41;4860114;29;11694;-71
2021/03/16 00:17:31;;;;;;;;;15.25;14.00;;;;;6.79;65.94;100376.03;4861524;29;12453;-73
2021/03/16 00:20:27;;;;;;;;;11.00;10.25;;;;;6.80;65.94;100385.88;4860264;29;11739;-74
2021/03/16 00:22:54;;;;;;;;;12.25;11.00;;;;;6.85;65.46;100387.72;4861485;29;11722;-74
2021/03/16 00:25:50;;;;;;;;;11.75;11.75;;;;;6.94;65.59;100380.31;4860850;29;11703;-74
2021/03/16 00:28:46;;;;;;;;;11.25;10.50;;;;;6.63;66.14;100381.09;4860797;29;11764;-74
2021/03/16 00:31:43;;;;;;;;;13.50;12.75;;;;;6.82;65.67;100380.88;4860319;29;11694;-74
2021/03/16 00:34:38;;;;;;;;;13.00;13.00;;;;;6.57;66.53;100376.84;4847611;29;11687;-73
2021/03/16 00:37:34;;;;;;;;;13.00;13.00;;;;;6.59;66.29;100377.31;4859925;29;11754;-73
2021/03/16 00:40:30;;;;;;;;;10.75;10.75;;;;;6.51;66.09;100383.56;4847571;29;11686;-72
2021/03/16 00:43:25;;;;;;;;;12.00;11.25;;;;;6.53;66.25;100381.34;4860289;29;11647;-72
2021/03/16 00:46:21;;;;;;;;;11.00;11.00;;;;;6.76;65.83;100389.59;4859690;29;11725;-73
2021/03/16 00:48:49;;;;;;;;;6.50;6.50;;;;;6.88;65.09;100379.63;4860804;29;11771;-73
2021/03/16 00:51:32;;;;;;;;;9.75;9.75;;;;;6.57;65.98;100378.78;4860825;29;11679;-73
2021/03/16 00:54:28;;;;;;;;;12.75;12.50;;;;;6.89;64.93;100384.00;4861999;29;11713;-73
2021/03/16 00:57:25;;;;;;;;;7.00;7.00;;;;;6.77;65.29;100386.53;4859813;29;11677;-73
2021/03/16 01:00:21;;;;;;;;;12.75;12.25;;;;;6.71;64.83;100387.78;4859728;29;11801;-74
2021/03/16 01:03:17;;;;;;;;;17.75;14.50;;;;;6.86;64.87;100384.66;4859599;29;11684;-74
2021/03/16 01:06:12;;;;;;;;;7.00;7.00;;;;;6.90;64.87;100391.16;4859491;29;11704;-74
2021/03/16 01:09:08;;;;;;;;;13.00;13.00;;;;;6.68;65.43;100385.66;4859685;29;11667;-73
2021/03/16 01:12:05;;;;;;;;;9.25;9.25;;;;;6.86;64.73;100381.91;4847680;29;11727;-73
2021/03/16 01:15:00;;;;;;;;;9.75;9.75;;;;;6.87;64.31;100377.22;4859392;29;11664;-75
2021/03/16 01:17:56;;;;;;;;;10.00;10.00;;;;;6.83;64.79;100385.28;4859577;29;11806;-73
2021/03/16 01:20:51;;;;;;;;;11.50;11.50;;;;;6.41;65.67;100375.56;4859851;29;11914;-73
2021/03/16 01:23:47;;;;;;;;;11.25;9.00;;;;;6.48;65.61;100370.47;4861194;29;11787;-73
2021/03/16 01:26:42;;;;;;;;;12.25;11.25;;;;;6.35;66.34;100374.88;4878357;29;11696;-74
2021/03/16 01:29:24;;;;;;;;;9.00;9.00;;;;;6.56;65.07;100368.91;4879487;29;11814;-73
2021/03/16 01:32:19;;;;;;;;;10.25;10.00;;;;;6.31;66.00;100359.34;4881118;29;12373;-72
2021/03/16 01:35:15;;;;;;;;;16.25;15.25;;;;;6.49;65.28;100372.09;4881886;29;11687;-73
2021/03/16 01:38:11;;;;;;;;;11.00;11.00;;;;;6.15;66.78;100371.81;4869337;29;11778;-73
2021/03/16 01:41:07;;;;;;;;;11.25;11.25;;;;;5.94;67.08;100374.19;4882366;29;11654;-74
2021/03/16 01:44:04;;;;;;;;;4.00;4.00;;;;;6.10;66.73;100369.97;4881365;29;11753;-73
2021/03/16 01:46:32;;;;;;;;;12.25;11.75;;;;;6.11;66.50;100369.66;4883090;29;11664;-74
2021/03/16 01:49:27;;;;;;;;;13.00;11.50;;;;;5.84;67.88;100365.00;4881922;29;11705;-74
2021/03/16 01:51:55;;;;;;;;;14.75;14.75;;;;;5.69;68.53;100357.09;4882518;29;11828;-73
2021/03/16 01:54:53;;;;;;;;;9.75;9.75;;;;;5.88;67.70;100362.44;4879777;29;11672;-74
2021/03/16 01:57:52;;;;;;;;;13.75;12.50;;;;;6.05;67.44;100370.88;4880939;29;11666;-74
2021/03/16 02:00:48;;;;;;;;;17.00;13.75;;;;;6.17;66.93;100370.38;4881763;29;11723;-74
2021/03/16 02:03:43;;;;;;;;;14.00;14.00;;;;;6.05;67.17;100368.13;4881714;29;11706;-74
2021/03/16 02:06:46;;;;;;;;;14.00;14.00;;;;;5.91;68.01;100369.31;4881361;29;11828;-73
2021/03/16 02:09:54;;;;;;;;;13.00;13.00;;;;;6.02;67.68;100374.25;4868703;29;11696;-73
2021/03/16 02:13:13;;;;;;;;;6.25;6.25;;;;;5.95;67.95;100373.88;4881039;29;11726;-73
2021/03/16 02:16:17;;;;;;;;;10.00;10.00;;;;;5.76;68.39;100360.25;4879837;29;12423;-73
2021/03/16 02:19:28;;;;;;;;;14.75;14.75;;;;;5.88;68.32;100370.69;4881193;29;11642;-73
2021/03/16 02:21:59;;;;;;;;;15.00;14.75;;;;;5.90;68.16;100367.63;4882111;29;11789;-74
2021/03/16 02:25:09;;;;;;;;;16.50;10.00;;;;;5.85;68.07;100360.34;4863901;29;11691;-73
2021/03/16 02:28:28;;;;;;;;;10.25;10.25;;;;;5.80;68.64;100366.72;4862019;29;11698;-72
2021/03/16 02:31:27;;;;;;;;;13.75;13.00;;;;;5.91;67.77;100363.81;4861977;29;11726;-72
2021/03/16 02:33:56;;;;;;;;;13.75;13.75;;;;;5.88;68.15;100359.72;4863286;29;11700;-73
2021/03/16 02:36:53;;;;;;;;;12.00;11.00;;;;;5.95;67.84;100362.88;4862186;29;11697;-74
2021/03/16 02:39:50;;;;;;;;;13.75;13.25;;;;;5.54;69.56;100362.91;4862926;29;11746;-73
2021/03/16 02:42:45;;;;;;;;;18.25;17.00;;;;;5.84;68.49;100364.19;4861266;29;11758;-73
2021/03/16 02:45:42;;;;;;;;;11.75;10.75;;;;;5.93;68.06;100372.56;4861883;29;11748;-74
2021/03/16 02:48:38;;;;;;;;;12.25;12.25;;;;;5.75;68.99;100366.84;4849300;29;11755;-75
2021/03/16 02:51:30;;;;;;;;;11.25;11.25;;;;;5.96;67.84;100370.00;4862927;29;11725;-74
2021/03/16 02:54:26;;;;;;;;;17.25;16.50;;;;;5.99;67.58;100372.13;4874646;29;11668;-74
2021/03/16 02:57:23;;;;;;;;;9.75;9.75;;;;;5.95;67.72;100370.31;4870422;29;11697;-74
2021/03/16 03:00:20;;;;;;;;;12.25;12.25;;;;;5.99;67.86;100376.81;4861577;29;11692;-74
2021/03/16 03:03:18;;;;;;;;;6.25;6.25;;;;;5.86;67.77;100403.94;4861998;29;11700;-74
2021/03/16 03:05:48;;;;;;;;;13.25;13.00;;;;;5.99;67.63;100439.97;4862600;29;11663;-75
2021/03/16 03:08:46;;;;;;;;;15.75;15.75;;;;;5.85;67.76;100404.25;4861743;29;11719;-75
2021/03/16 03:11:41;;;;;;;;;14.00;14.00;;;;;5.85;68.06;100410.53;4864247;29;11755;-74
2021/03/16 03:14:38;;;;;;;;;11.00;8.75;;;;;5.23;70.39;100392.84;4880378;29;11793;-74
2021/03/16 03:17:34;;;;;;;;;12.25;12.25;;;;;5.70;68.73;100424.56;4879875;29;11638;-74
2021/03/16 03:20:34;;;;;;;;;12.50;12.00;;;;;5.63;69.39;100413.19;4879887;29;11675;-73
2021/03/16 03:23:34;;;;;;;;;10.00;10.00;;;;;5.60;68.98;100383.63;4874403;29;11688;-73
2021/03/16 03:27:01;;;;;;;;;13.00;13.00;;;;;5.54;69.50;100435.03;4861590;29;11717;-73
2021/03/16 03:29:59;;;;;;;;;12.00;12.00;;;;;5.24;70.92;100386.25;4849236;29;11728;-74
2021/03/16 03:33:01;;;;;;;;;14.50;14.50;;;;;5.40;70.56;100415.00;4848617;29;11707;-73
2021/03/16 03:35:31;;;;;;;;;13.50;13.50;;;;;5.45;70.05;100395.72;4862815;29;11744;-73
2021/03/16 03:38:28;;;;;;;;;12.00;12.00;;;;;5.57;69.60;100406.97;4861054;29;11732;-74
2021/03/16 03:41:26;;;;;;;;;13.00;10.00;;;;;5.40;70.45;100401.28;4861094;29;12500;-74
2021/03/16 03:44:24;;;;;;;;;12.75;12.75;;;;;5.57;69.67;100396.00;4848476;29;11701;-74
2021/03/16 03:47:20;;;;;;;;;10.00;10.00;;;;;5.68;68.93;100432.31;4860945;29;12520;-73
2021/03/16 03:50:16;;;;;;;;;19.25;17.75;;;;;5.52;69.86;100398.88;4867433;29;11701;-73
2021/03/16 03:53:13;;;;;;;;;11.00;11.00;;;;;5.63;69.42;100417.88;4866778;29;11850;-74
2021/03/16 03:56:09;;;;;;;;;9.75;9.75;;;;;5.19;70.60;100392.63;4879307;29;11719;-74
2021/03/16 03:59:06;;;;;;;;;10.50;10.50;;;;;5.01;72.18;100385.28;4879496;29;11633;-73
2021/03/16 04:02:03;;;;;;;;;16.25;15.75;;;;;5.28;71.04;100393.53;4879020;29;11739;-74
2021/03/16 04:04:59;;;;;;;;;9.00;9.00;;;;;5.13;71.35;100388.34;4879179;29;11746;-73
2021/03/16 04:07:57;;;;;;;;;13.50;12.75;;;;;5.36;70.49;100443.31;4878930;29;11652;-73
2021/03/16 04:10:53;;;;;;;;;13.00;12.00;;;;;5.28;71.00;100434.66;4879272;29;11777;-74
2021/03/16 04:13:49;;;;;;;;;13.75;13.75;;;;;5.42;70.75;100431.16;4879130;29;11742;-73
2021/03/16 04:16:45;;;;;;;;;10.75;10.75;;;;;5.13;71.97;100414.94;4879068;29;12430;-74
2021/03/16 04:19:41;;;;;;;;;13.00;12.75;;;;;5.10;72.04;100410.06;4870439;29;11793;-73
2021/03/16 04:22:37;;;;;;;;;12.50;12.50;;;;;5.25;71.57;100409.78;4859882;29;11784;-73
2021/03/16 04:25:33;;;;;;;;;13.00;13.00;;;;;5.17;71.83;100430.50;4847838;29;11678;-75
2021/03/16 04:28:29;;;;;;;;;9.75;9.75;;;;;5.28;71.36;100434.66;4860123;29;11845;-73
2021/03/16 04:31:24;;;;;;;;;15.75;15.25;;;;;5.25;71.58;100443.50;4859910;29;11707;-75
2021/03/16 04:33:51;;;;;;;;;11.50;11.50;;;;;5.34;71.85;100434.59;4863596;29;11718;-73
2021/03/16 04:36:47;;;;;;;;;9.25;8.50;;;;;5.13;72.33;100423.16;4878604;29;11708;-74
2021/03/16 04:39:42;;;;;;;;;15.75;14.25;;;;;5.00;72.82;100417.34;4878616;29;11651;-74
2021/03/16 04:42:38;;;;;;;;;12.50;12.50;;;;;4.85;73.52;100422.28;4878618;29;11719;-74
2021/03/16 04:45:34;;;;;;;;;14.25;12.75;;;;;5.10;73.14;100424.59;4861631;29;11695;-74
2021/03/16 04:48:30;;;;;;;;;18.50;16.00;;;;;5.28;72.36;100417.41;4860252;29;11839;-74
2021/03/16 04:51:27;;;;;;;;;12.75;12.00;;;;;5.05;72.63;100416.44;4855424;29;11710;-73
2021/03/16 04:54:23;;;;;;;;;20.25;20.25;;;;;5.24;72.58;100416.41;4878135;29;12482;-74
2021/03/16 04:57:19;;;;;;;;;14.75;12.75;;;;;5.21;72.54;100420.56;4879023;29;12569;-74
2021/03/16 05:00:15;;;;;;;;;12.50;12.50;;;;;4.92;73.80;100419.97;4876411;29;11722;-75
2021/03/16 05:03:11;;;;;;;;;28.75;22.00;;;;;5.33;72.42;100425.56;4868389;29;11750;-74
2021/03/16 05:06:06;;;;;;;;;19.50;17.25;;;;;5.36;72.70;100429.59;4868348;29;11736;-73
2021/03/16 05:09:03;;;;;;;;;18.00;16.75;;;;;5.33;72.50;100422.81;4860714;29;11700;-74
2021/03/16 05:11:58;;;;;;;;;14.50;13.25;;;;;5.24;72.78;100411.72;4860734;29;11744;-74
2021/03/16 05:14:36;;;;;;;;;14.00;13.00;;;;;5.20;73.13;100418.09;4862305;29;11703;-72
2021/03/16 05:17:23;;;;;;;;;12.25;12.25;;;;;5.55;72.01;100411.97;4867934;29;11749;-73
2021/03/16 05:19:52;;;;;;;;;15.75;15.75;;;;;5.42;72.58;100409.22;4848014;29;11734;-73
2021/03/16 05:22:38;;;;;;;;;14.50;14.50;;;;;5.36;72.65;100418.63;4861406;29;11753;-74
2021/03/16 05:25:11;;;;;;;;;21.25;18.00;;;;;5.67;71.76;100425.16;4871347;29;11703;-75
2021/03/16 05:27:40;;;;;;;;;17.25;15.25;;;;;5.75;71.13;100427.22;4879328;29;11661;-76
2021/03/16 05:30:36;;;;;;;;;15.00;12.75;;;;;5.43;72.16;100422.59;4880054;29;11802;-74
2021/03/16 05:33:06;;;;;;;;;16.25;16.25;;;;;5.81;71.26;100422.44;4878768;29;11729;-76
2021/03/16 05:36:02;;;;;;;;;17.00;17.00;;;;;5.72;71.11;100433.31;4878204;29;11704;-73
2021/03/16 05:38:57;;;;;;;;;14.00;14.00;;;;;5.89;71.29;100435.44;4879021;29;11670;-74
2021/03/16 05:41:53;;;;;;;;;17.50;17.00;;;;;6.08;70.86;100430.69;4878803;29;11664;-76
2021/03/16 05:44:49;;;;;;;;;17.00;17.00;;;;;6.18;70.16;100429.66;4877214;29;11794;-75
2021/03/16 05:47:47;;;;;;;;;17.25;16.75;;;;;6.26;69.47;100426.16;4879121;29;11685;-78
2021/03/16 05:50:43;;;;;;;;;15.50;14.25;;;;;6.25;69.68;100421.81;4888545;29;11696;-76
2021/03/16 05:53:39;;;;;;;;;16.25;16.25;;;;;6.34;69.46;100419.13;4878979;29;11774;-75
2021/03/16 05:56:35;;;;;;;;;17.50;16.50;;;;;6.24;70.10;100433.09;4876740;29;11683;-75
2021/03/16 05:59:48;;;;;;;;;22.00;22.00;;;;;6.32;69.50;100413.16;4878448;29;11707;-75
2021/03/16 06:02:43;;;;;;;;;20.50;19.00;;;;;6.36;69.79;100408.66;4879232;29;11747;-77
2021/03/16 06:05:39;;;;;;;;;21.75;19.00;;;;;6.38;69.73;100409.16;4876155;29;11734;-75
2021/03/16 06:08:34;;;;;;;;;17.75;17.75;;;;;6.54;68.86;100401.38;4877532;29;11731;-74
2021/03/16 06:11:33;;;;;;;;;15.00;13.75;;;;;6.27;69.70;100402.25;4861133;29;11736;-75
2021/03/16 06:14:31;;;;;;;;;16.25;16.25;;;;;6.24;70.25;100398.22;4864963;29;11778;-75
2021/03/16 06:17:26;;;;;;;;;15.00;15.00;;;;;6.37;69.90;100397.38;4876523;29;11792;-75
2021/03/16 06:19:55;;;;;;;;;17.75;17.75;;;;;6.68;68.75;100391.16;4881922;29;11689;-75
2021/03/16 06:22:37;;;;;;;;;10.50;10.50;;;;;6.95;68.47;100385.50;4867215;29;11912;-75
2021/03/16 06:25:10;;;;;;;;;17.75;17.00;;;;;7.19;67.22;100390.66;4865459;29;12342;-76
2021/03/16 06:28:07;;;;;;;;;17.75;15.25;;;;;7.06;67.57;100385.25;4880449;29;11703;-75
2021/03/16 06:31:07;;;;;;;;;19.75;15.00;;;;;7.42;66.65;100374.91;4880379;29;11729;-75
2021/03/16 06:34:03;;;;;;;;;15.00;15.00;;;;;7.60;65.67;100381.31;4850300;29;11710;-76
2021/03/16 06:37:01;;;;;;;;;23.25;22.00;;;;;7.53;65.52;100376.28;4862891;29;11795;-74
2021/03/16 06:39:57;;;;;;;;;17.25;15.75;;;;;7.40;65.91;100387.38;4862054;29;12474;-75
2021/03/16 06:43:10;;;;;;;;;17.00;17.00;;;;;7.38;66.74;100384.13;4849563;29;11715;-75
2021/03/16 06:46:06;;;;;;;;;15.75;14.75;;;;;7.20;67.00;100367.53;4862203;29;11728;-75
2021/03/16 06:49:15;;;;;;;;;12.25;11.50;;;;;7.42;66.29;100363.09;4863427;29;11682;-74
2021/03/16 06:52:11;;;;;;;;;15.00;15.00;;;;;7.67;65.13;100359.66;4849081;29;11721;-75
2021/03/16 06:55:14;;;;;;;;;10.00;10.00;;;;;7.66;64.95;100363.50;4863043;29;11835;-74
2021/03/16 06:58:10;;;;;;;;;12.00;12.00;;;;;7.46;65.04;100362.16;4873074;29;12414;-74
2021/03/16 07:01:13;;;;;;;;;13.00;11.75;;;;;7.84;65.16;100358.06;4880600;29;11751;-74
2021/03/16 07:04:20;;;;;;;;;14.00;12.50;;;;;7.93;65.33;100370.72;4851566;29;11715;-77
2021/03/16 07:07:20;;;;;;;;;14.00;14.00;;;;;7.99;63.68;100368.63;4861825;29;11729;-74
2021/03/16 07:10:17;;;;;;;;;17.75;16.50;;;;;8.54;63.04;100366.09;4871745;29;11703;-74
2021/03/16 07:13:13;;;;;;;;;10.75;10.25;;;;;7.91;63.78;100358.41;4875971;29;12412;-73
2021/03/16 07:16:05;;;;;;;;;15.25;15.25;;;;;8.09;63.45;100363.59;4882242;29;11605;-75
2021/03/16 07:18:46;;;;;;;;;13.75;10.25;;;;;8.18;63.46;100368.31;4879043;29;11767;-73
2021/03/16 07:21:54;;;;;;;;;13.50;13.50;;;;;8.41;63.92;100352.47;4864613;29;11584;-74
2021/03/16 07:24:55;;;;;;;;;13.50;12.50;;;;;8.76;62.97;100347.75;4862927;29;12438;-76
2021/03/16 07:27:52;;;;;;;;;16.50;15.00;;;;;8.29;63.60;100353.09;4861817;29;11647;-73
2021/03/16 07:30:53;;;;;;;;;13.00;13.00;;;;;8.82;62.41;100361.06;4848855;29;12541;-73
2021/03/16 07:33:43;;;;;;;;;13.25;13.00;;;;;8.69;62.65;100361.22;4861566;29;11803;-74
2021/03/16 07:36:13;;;;;;;;;16.00;14.25;;;;;8.77;62.32;100349.38;4846434;29;11644;-75
2021/03/16 07:39:15;;;;;;;;;12.50;11.50;;;;;8.70;62.32;100340.78;4862166;29;12557;-75
2021/03/16 07:42:14;;;;;;;;;12.00;12.00;;;;;8.59;62.38;100345.84;4861263;29;11631;-75
2021/03/16 07:45:22;;;;;;;;;16.75;15.25;;;;;8.84;61.83;100338.66;4863060;29;12371;-75
2021/03/16 07:47:50;;;;;;;;;16.00;14.25;;;;;8.90;62.06;100353.91;4864656;29;11658;-76
2021/03/16 07:50:31;;;;;;;;;13.00;12.50;;;;;8.40;63.17;100353.63;4859545;29;11751;-76
2021/03/16 07:53:29;;;;;;;;;13.50;13.50;;;;;8.99;62.29;100348.38;4879102;29;11645;-77
2021/03/16 07:56:26;;;;;;;;;18.25;16.50;;;;;8.63;63.07;100358.63;4875716;29;11595;-76
2021/03/16 07:59:32;;;;;;;;;11.00;11.00;;;;;8.91;62.48;100359.09;4860459;29;12453;-76
2021/03/16 08:02:31;;;;;;;;;6.75;6.50;;;;;8.57;62.81;100354.41;4861465;29;11652;-76
2021/03/16 08:04:59;;;;;;;;;16.75;16.00;;;;;8.60;62.91;100351.03;4862630;29;11607;-76
2021/03/16 08:07:55;;;;;;;;;15.25;15.25;;;;;8.52;62.94;100354.59;4855640;29;11823;-76
2021/03/16 08:10:34;;;;;;;;;15.00;12.00;;;;;8.74;62.45;100341.75;4880606;29;11628;-76
2021/03/16 08:13:21;;;;;;;;;16.00;15.50;;;;;9.42;61.62;100345.44;4874541;29;11633;-76
2021/03/16 08:16:18;;;;;;;;;16.75;16.75;;;;;9.52;60.34;100334.03;4876827;29;11747;-75
2021/03/16 08:19:12;;;;;;;;;18.75;15.25;;;;;9.51;60.14;100329.66;4884253;29;11764;-75
2021/03/16 08:22:10;;;;;;;;;16.75;16.75;;;;;9.34;60.61;100324.22;4855855;29;11650;-73
2021/03/16 08:25:07;;;;;;;;;14.00;14.00;;;;;9.77;60.01;100337.00;4860649;29;11663;-74
2021/03/16 08:27:49;;;;;;;;;12.75;12.75;;;;;10.36;58.36;100332.22;4862523;29;11399;-74
2021/03/16 08:30:48;;;;;;;;;15.25;11.75;;;;;10.18;58.00;100328.72;4848304;29;11632;-76
2021/03/16 08:33:46;;;;;;;;;20.00;15.75;;;;;10.44;57.53;100319.47;4860387;29;11333;-75
2021/03/16 08:36:50;;;;;;;;;14.00;14.00;;;;;10.17;57.79;100313.31;4860780;29;11968;-76
2021/03/16 08:39:47;;;;;;;;;24.25;22.00;;;;;10.34;57.99;100292.22;4859931;29;11343;-76
2021/03/16 08:42:46;;;;;;;;;23.25;21.50;;;;;10.08;58.40;100300.72;4848071;29;11680;-74
2021/03/16 08:45:44;;;;;;;;;15.25;14.50;;;;;9.91;59.66;100296.94;4860512;29;11664;-75
2021/03/16 08:48:43;;;;;;;;;18.50;17.25;;;;;10.05;58.67;100316.00;4871366;29;11648;-75
2021/03/16 08:51:38;;;;;;;;;20.50;20.50;;;;;10.20;58.06;100315.41;4836808;29;11702;-75
2021/03/16 08:54:34;;;;;;;;;23.25;20.25;;;;;10.27;57.84;100320.41;4860384;29;11836;-75
2021/03/16 08:57:24;;;;;;;;;18.75;18.00;;;;;11.13;56.70;100324.28;4843672;29;11697;-76
2021/03/16 08:59:58;;;;;;;;;13.25;13.25;;;;;11.46;55.46;100310.38;4863641;29;11375;-75
2021/03/16 09:03:09;;;;;;;;;13.75;13.75;;;;;11.92;54.93;100305.50;4875099;29;11258;-76
2021/03/16 09:06:07;;;;;;;;;14.25;14.25;;;;;11.97;54.24;100285.88;4873079;29;10988;-76
2021/03/16 09:08:52;;;;;;;;;12.00;10.00;;;;;12.34;53.81;100294.88;4867528;29;11538;-75
2021/03/16 09:11:45;;;;;;;;;13.00;11.00;;;;;12.41;51.88;100288.72;4853680;29;11216;-77
2021/03/16 09:14:18;;;;;;;;;10.00;10.00;;;;;12.14;52.95;100276.47;4859787;29;10698;-76
2021/03/16 09:16:53;;;;;;;;;11.25;11.25;;;;;12.16;52.06;100274.94;4864866;29;10343;-77
2021/03/16 09:19:55;;;;;;;;;14.00;14.00;;;;;11.92;53.63;100277.81;4878708;29;10555;-75
2021/03/16 09:23:00;;;;;;;;;26.75;23.75;;;;;11.64;54.18;100261.88;4848571;29;10420;-74
2021/03/16 09:26:06;;;;;;;;;16.00;16.00;;;;;11.89;53.00;100251.59;4857232;29;10872;-74
2021/03/16 09:28:56;;;;;;;;;12.75;12.75;;;;;12.27;52.53;100244.78;4865791;29;10750;-75
2021/03/16 09:31:26;;;;;;;;;10.75;10.25;;;;;12.07;52.75;100240.22;4869203;29;10682;-75
2021/03/16 09:34:22;;;;;;;;;14.25;13.00;;;;;11.87;52.95;100233.69;4877024;29;10576;-75
2021/03/16 09:37:21;;;;;;;;;14.50;12.00;;;;;11.72;53.94;100237.16;4848365;29;10455;-74
2021/03/16 09:40:38;;;;;;;;;5.00;5.00;;;;;11.97;53.58;100244.31;4860647;29;10568;-74
2021/03/16 09:43:37;;;;;;;;;14.25;13.50;;;;;12.63;52.85;100227.13;4860377;29;11504;-75
2021/03/16 09:46:33;;;;;;;;;20.75;20.75;;;;;12.57;51.84;100228.53;4861266;29;10597;-73
2021/03/16 09:49:26;;;;;;;;;15.25;12.75;;;;;11.75;53.76;100230.94;4865058;29;10819;-73
2021/03/16 09:52:24;;;;;;;;;27.75;25.25;;;;;11.55;55.03;100227.16;4885659;29;10738;-73
2021/03/16 09:55:19;;;;;;;;;29.00;27.25;;;;;12.32;54.11;100225.09;4904492;29;12617;-73
2021/03/16 09:58:22;;;;;;;;;20.50;18.75;;;;;12.42;52.37;100224.63;4890346;29;11090;-76
2021/03/16 10:01:20;;;;;;;;;22.75;22.25;;;;;12.76;52.86;100208.44;4863246;29;11304;-74
2021/03/16 10:04:16;;;;;;;;;24.50;23.75;;;;;11.91;53.75;100234.63;4863183;29;10884;-73
2021/03/16 10:06:45;;;;;;;;;20.50;20.50;;;;;12.22;52.78;100215.34;4848045;29;10791;-73
2021/03/16 10:09:41;;;;;;;;;23.25;22.25;;;;;12.41;53.13;100222.16;4863696;29;10837;-74
2021/03/16 10:12:19;;;;;;;;;21.00;19.50;;;;;12.03;53.60;100220.72;4864076;29;10803;-75
2021/03/16 10:15:23;;;;;;;;;16.75;16.75;;;;;12.16;52.88;100205.66;4863334;29;10855;-73
2021/03/16 10:18:24;;;;;;;;;15.00;15.00;;;;;12.84;51.52;100207.47;4850446;29;10557;-74
2021/03/16 10:21:01;;;;;;;;;21.50;21.50;;;;;13.04;51.32;100211.97;4849681;29;10597;-74
2021/03/16 10:24:06;;;;;;;;;24.75;24.00;;;;;12.80;52.37;100201.00;4867579;29;10867;-75
2021/03/16 10:26:34;;;;;;;;;16.75;15.00;;;;;12.19;52.79;100201.34;4880727;29;10795;-73
2021/03/16 10:29:10;;;;;;;;;25.00;21.75;;;;;12.17;52.92;100190.63;4867339;29;10607;-73
2021/03/16 10:31:41;;;;;;;;;21.25;21.25;;;;;12.11;53.37;100207.88;4882608;29;10855;-74
2021/03/16 10:34:08;;;;;;;;;12.50;12.50;;;;;12.48;51.77;100209.31;4884084;29;10585;-74
2021/03/16 10:36:36;;;;;;;;;11.50;11.50;;;;;11.72;53.36;100192.84;4882205;29;10557;-74
2021/03/16 10:39:05;;;;;;;;;10.25;10.25;;;;;11.67;53.95;100183.63;4866935;29;10355;-74
2021/03/16 10:42:04;;;;;;;;;14.75;14.75;;;;;11.46;54.37;100173.88;4880367;29;10736;-74
2021/03/16 10:44:49;;;;;;;;;25.00;22.75;;;;;11.80;54.64;100165.03;4858619;29;11035;-74
2021/03/16 10:47:35;;;;;;;;;31.75;28.50;;;;;11.60;54.99;100166.81;4886348;29;11256;-74
2021/03/16 10:50:20;;;;;;;;;37.50;35.00;;;;;11.72;55.33;100162.38;4881429;29;11255;-74
2021/03/16 10:53:21;;;;;;;;;35.25;34.75;;;;;12.22;53.87;100162.66;4890322;29;11683;-75
2021/03/16 10:56:17;;;;;;;;;25.00;25.00;;;;;12.79;52.04;100166.91;4887103;29;11645;-74
2021/03/16 10:59:13;;;;;;;;;49.75;40.25;;;;;13.29;51.14;100164.56;4888323;29;11188;-73
2021/03/16 11:02:09;;;;;;;;;22.25;22.25;;;;;13.07;49.98;100169.59;4896215;29;11352;-75
2021/03/16 11:05:07;;;;;;;;;24.00;24.00;;;;;12.52;51.54;100174.16;4874757;29;10832;-73
2021/03/16 11:07:52;;;;;;;;;38.50;36.25;;;;;12.41;52.06;100169.47;4871616;29;11277;-75
2021/03/16 11:10:20;;;;;;;;;36.00;32.25;;;;;12.53;51.46;100167.44;4846562;29;11255;-75
2021/03/16 11:13:17;;;;;;;;;22.25;21.00;;;;;12.01;52.40;100162.06;4849377;29;11827;-73
2021/03/16 11:16:00;;;;;;;;;20.00;18.50;;;;;12.14;52.52;100154.50;4865571;29;10868;-71
2021/03/16 11:18:56;;;;;;;;;27.75;27.75;;;;;11.89;52.85;100154.63;4876246;29;10834;-72
2021/03/16 11:21:51;;;;;;;;;42.00;37.50;;;;;12.14;53.15;100160.84;4848791;29;11281;-73
2021/03/16 11:24:37;;;;;;;;;36.25;34.25;;;;;11.77;53.89;100164.91;4862286;29;11667;-72
2021/03/16 11:27:21;;;;;;;;;30.25;29.00;;;;;11.77;54.29;100154.63;4847997;29;11372;-73
2021/03/16 11:30:17;;;;;;;;;28.00;26.50;;;;;11.63;54.19;100155.00;4860300;29;11429;-73
2021/03/16 11:33:14;;;;;;;;;36.00;35.25;;;;;11.48;54.90;100157.72;4878536;29;11213;-74
2021/03/16 11:36:10;;;;;;;;;18.75;17.00;;;;;11.43;55.05;100160.75;4864727;29;11476;-74
2021/03/16 11:39:06;;;;;;;;;31.50;31.00;;;;;11.33;55.15;100164.78;4867990;29;11246;-75
2021/03/16 11:41:49;;;;;;;;;38.25;35.50;;;;;11.34;55.05;100169.97;4879392;29;11690;-74
2021/03/16 11:44:45;;;;;;;;;53.25;42.25;;;;;11.20;56.02;100166.78;4866955;29;11708;-74
2021/03/16 11:47:40;;;;;;;;;44.50;38.50;;;;;11.11;56.11;100158.56;4880670;29;11879;-74
2021/03/16 11:50:37;;;;;;;;;42.75;38.50;;;;;11.41;55.85;100148.03;4863569;29;11899;-75
2021/03/16 11:53:32;;;;;;;;;36.25;35.25;;;;;11.47;55.38;100161.66;4883654;29;11662;-75
2021/03/16 11:56:28;;;;;;;;;19.75;18.50;;;;;11.61;55.17;100153.75;4865218;29;11661;-74
2021/03/16 11:59:25;;;;;;;;;25.25;25.25;;;;;11.52;55.18;100150.34;4867680;29;11248;-73
2021/03/16 12:02:25;;;;;;;;;31.00;30.50;;;;;11.52;55.00;100151.13;4884652;29;12006;-74
2021/03/16 12:05:23;;;;;;;;;27.75;24.00;;;;;11.80;54.44;100148.41;4872427;29;11689;-74
2021/03/16 12:08:06;;;;;;;;;55.25;42.75;;;;;11.78;54.39;100147.94;4880254;29;11694;-73
2021/03/16 12:10:37;;;;;;;;;45.50;40.75;;;;;11.67;54.49;100144.88;4880047;29;11682;-75
2021/03/16 12:13:34;;;;;;;;;46.25;41.00;;;;;11.79;54.21;100143.19;4875008;29;12350;-76
2021/03/16 12:16:17;;;;;;;;;30.00;28.25;;;;;11.25;55.27;100157.41;4859247;29;11717;-75
2021/03/16 12:19:13;;;;;;;;;27.75;27.75;;;;;11.18;55.66;100146.13;4849848;29;11736;-74
2021/03/16 12:21:49;;;;;;;;;34.25;34.25;;;;;11.21;55.78;100146.25;4893567;29;11457;-73
2021/03/16 12:24:20;;;;;;;;;51.25;41.50;;;;;11.26;55.97;100145.97;4870351;29;11771;-74
2021/03/16 12:27:09;;;;;;;;;20.75;20.00;;;;;11.36;55.71;100128.91;4880235;29;11701;-74
2021/03/16 12:29:44;;;;;;;;;30.25;28.50;;;;;11.29;55.62;100122.34;4870774;29;11288;-73
2021/03/16 12:32:39;;;;;;;;;16.00;16.00;;;;;11.42;55.17;100123.91;4870741;29;11685;-73
2021/03/16 12:35:37;;;;;;;;;23.75;23.75;;;;;11.32;55.59;100122.44;4870267;29;10995;-74
2021/03/16 12:38:32;;;;;;;;;26.25;23.75;;;;;11.61;54.47;100109.44;4869319;29;11383;-73
2021/03/16 12:41:28;;;;;;;;;41.25;33.50;;;;;11.41;55.16;100111.22;4860585;29;11672;-73
2021/03/16 12:44:25;;;;;;;;;52.00;43.25;;;;;11.44;54.86;100095.91;4867109;29;11709;-72
2021/03/16 12:47:21;;;;;;;;;57.50;47.00;;;;;11.48;55.19;100099.56;4865446;29;11638;-72
2021/03/16 12:50:17;;;;;;;;;23.25;19.00;;;;;11.76;54.55;100088.50;4863951;29;11688;-74
2021/03/16 12:53:13;;;;;;;;;28.75;28.75;;;;;11.72;54.93;100079.28;4865925;29;11654;-72
2021/03/16 12:56:12;;;;;;;;;56.00;46.50;;;;;11.79;54.96;100071.97;4864913;29;11692;-73
2021/03/16 12:58:40;;;;;;;;;38.00;33.50;;;;;12.00;55.19;100068.22;4862938;29;11929;-74
2021/03/16 13:01:36;;;;;;;;;22.50;22.50;;;;;11.96;54.77;100063.38;4864870;29;11520;-74
2021/03/16 13:04:27;;;;;;;;;32.25;30.50;;;;;12.04;54.06;100066.31;4867361;29;11066;-75
2021/03/16 13:07:10;;;;;;;;;44.00;40.25;;;;;12.12;54.08;100062.59;4863589;29;11099;-74
2021/03/16 13:10:07;;;;;;;;;16.25;16.25;;;;;12.33;52.77;100059.53;4865696;29;11635;-74